sensor_id;sensor_type;location;lat;lon;timestamp;P1;durP1;ratioP1;P2;durP2;ratioP2
82396;SDS011;72034;51.426;7.534;2023-11-21T05:01:20;19.38;;;12.88;;
82396;SDS011;72034;51.426;7.534;2023-11-21T05:03:52;16.25;;;13.02;;
82396;SDS011;72034;51.426;7.534;2023-11-21T05:06:25;20.45;;;14.30;;
82396;SDS011;72034;51.426;7.534;2023-11-21T05:08:50;21.45;;;13.10;;
82396;SDS011;72034;51.426;7.534;2023-11-21T05:11:31;17.67;;;14.25;;
82396;SDS011;72034;51.426;7.534;2023-11-21T05:13:57;20.15;;;13.52;;
82396;SDS011;72034;51.426;7.534;2023-11-21T05:16:31;15.55;;;12.68;;
82396;SDS011;72034;51.426;7.534;2023-11-21T05:19:09;17.10;;;13.27;;
82396;SDS011;72034;51.426;7.534;2023-11-21T05:21:44;21.48;;;14.50;;
82396;SDS011;72034;51.426;7.534;2023-11-21T05:24:10;19.38;;;13.95;;
82396;SDS011;72034;51.426;7.534;2023-11-21T05:27:19;19.77;;;14.13;;
82396;SDS011;72034;51.426;7.534;2023-11-21T05:29:56;16.42;;;13.07;;
82396;SDS011;72034;51.426;7.534;2023-11-21T05:33:04;15.57;;;12.30;;
82396;SDS011;72034;51.426;7.534;2023-11-21T05:35:50;18.58;;;14.27;;
82396;SDS011;72034;51.426;7.534;2023-11-21T05:39:05;21.48;;;13.82;;
82396;SDS011;72034;51.426;7.534;2023-11-21T05:41:47;22.98;;;15.73;;
82396;SDS011;72034;51.426;7.534;2023-11-21T05:44:21;23.33;;;15.45;;
82396;SDS011;72034;51.426;7.534;2023-11-21T05:47:16;29.10;;;18.15;;
82396;SDS011;72034;51.426;7.534;2023-11-21T05:50:04;26.88;;;15.90;;
82396;SDS011;72034;51.426;7.534;2023-11-21T05:58:17;28.33;;;19.00;;
82396;SDS011;72034;51.426;7.534;2023-11-21T06:00:58;20.92;;;15.90;;
82396;SDS011;72034;51.426;7.534;2023-11-21T06:03:50;19.85;;;14.55;;
82396;SDS011;72034;51.426;7.534;2023-11-21T06:06:40;25.42;;;17.83;;
82396;SDS011;72034;51.426;7.534;2023-11-21T06:09:22;23.23;;;16.40;;
82396;SDS011;72034;51.426;7.534;2023-11-21T06:12:05;28.23;;;16.63;;
82396;SDS011;72034;51.426;7.534;2023-11-21T06:15:14;35.17;;;20.13;;
82396;SDS011;72034;51.426;7.534;2023-11-21T06:21:04;25.33;;;18.05;;
82396;SDS011;72034;51.426;7.534;2023-11-21T06:23:37;31.33;;;18.25;;
82396;SDS011;72034;51.426;7.534;2023-11-21T06:26:33;35.90;;;19.30;;
82396;SDS011;72034;51.426;7.534;2023-11-21T06:29:16;29.92;;;20.05;;
82396;SDS011;72034;51.426;7.534;2023-11-21T06:32:00;31.40;;;18.98;;
82396;SDS011;72034;51.426;7.534;2023-11-21T06:34:44;30.60;;;18.67;;
82396;SDS011;72034;51.426;7.534;2023-11-21T06:37:29;29.90;;;17.73;;
82396;SDS011;72034;51.426;7.534;2023-11-21T06:40:35;25.98;;;17.00;;
82396;SDS011;72034;51.426;7.534;2023-11-21T06:43:19;22.17;;;16.42;;
82396;SDS011;72034;51.426;7.534;2023-11-21T06:45:52;24.20;;;16.17;;
82396;SDS011;72034;51.426;7.534;2023-11-21T06:51:28;29.58;;;17.08;;
82396;SDS011;72034;51.426;7.534;2023-11-21T06:54:20;30.05;;;17.83;;
82396;SDS011;72034;51.426;7.534;2023-11-21T07:00:22;23.33;;;16.30;;
82396;SDS011;72034;51.426;7.534;2023-11-21T07:02:48;23.65;;;15.90;;
82396;SDS011;72034;51.426;7.534;2023-11-21T07:05:23;24.35;;;16.80;;
82396;SDS011;72034;51.426;7.534;2023-11-21T07:07:57;24.65;;;17.23;;
82396;SDS011;72034;51.426;7.534;2023-11-21T07:10:40;27.02;;;16.20;;
82396;SDS011;72034;51.426;7.534;2023-11-21T07:13:18;24.83;;;16.50;;
82396;SDS011;72034;51.426;7.534;2023-11-21T07:15:51;22.75;;;15.50;;
82396;SDS011;72034;51.426;7.534;2023-11-21T07:18:19;23.50;;;16.40;;
82396;SDS011;72034;51.426;7.534;2023-11-21T07:20:50;24.27;;;16.02;;
82396;SDS011;72034;51.426;7.534;2023-11-21T07:23:21;24.98;;;16.52;;
82396;SDS011;72034;51.426;7.534;2023-11-21T07:26:09;29.25;;;16.48;;
82396;SDS011;72034;51.426;7.534;2023-11-21T07:28:54;25.75;;;17.30;;
82396;SDS011;72034;51.426;7.534;2023-11-21T07:31:52;26.38;;;17.38;;
82396;SDS011;72034;51.426;7.534;2023-11-21T07:34:38;28.52;;;17.65;;
82396;SDS011;72034;51.426;7.534;2023-11-21T07:37:07;25.52;;;17.52;;
82396;SDS011;72034;51.426;7.534;2023-11-21T07:39:41;24.17;;;17.80;;
82396;SDS011;72034;51.426;7.534;2023-11-21T07:42:19;24.67;;;17.65;;
82396;SDS011;72034;51.426;7.534;2023-11-21T07:44:48;29.02;;;18.40;;
82396;SDS011;72034;51.426;7.534;2023-11-21T07:50:31;29.92;;;19.02;;
82396;SDS011;72034;51.426;7.534;2023-11-21T07:53:11;29.60;;;18.83;;
82396;SDS011;72034;51.426;7.534;2023-11-21T07:55:49;30.13;;;19.27;;
82396;SDS011;72034;51.426;7.534;2023-11-21T07:58:52;26.30;;;16.92;;
82396;SDS011;72034;51.426;7.534;2023-11-21T08:01:23;27.52;;;17.65;;
82396;SDS011;72034;51.426;7.534;2023-11-21T08:03:50;27.90;;;18.27;;
82396;SDS011;72034;51.426;7.534;2023-11-21T08:06:21;31.63;;;19.67;;
82396;SDS011;72034;51.426;7.534;2023-11-21T08:09:42;27.83;;;16.92;;
82396;SDS011;72034;51.426;7.534;2023-11-21T08:12:17;28.33;;;17.75;;
82396;SDS011;72034;51.426;7.534;2023-11-21T08:17:51;32.17;;;18.63;;
82396;SDS011;72034;51.426;7.534;2023-11-21T08:23:23;30.80;;;19.70;;
82396;SDS011;72034;51.426;7.534;2023-11-21T08:25:59;35.53;;;20.83;;
82396;SDS011;72034;51.426;7.534;2023-11-21T08:28:30;38.20;;;21.88;;
82396;SDS011;72034;51.426;7.534;2023-11-21T08:30:56;35.13;;;21.02;;
82396;SDS011;72034;51.426;7.534;2023-11-21T08:33:39;35.75;;;21.92;;
82396;SDS011;72034;51.426;7.534;2023-11-21T08:36:28;36.38;;;22.75;;
82396;SDS011;72034;51.426;7.534;2023-11-21T08:38:56;36.38;;;21.65;;
82396;SDS011;72034;51.426;7.534;2023-11-21T08:41:24;39.47;;;21.88;;
82396;SDS011;72034;51.426;7.534;2023-11-21T08:47:18;36.92;;;22.05;;
82396;SDS011;72034;51.426;7.534;2023-11-21T08:49:52;37.00;;;21.45;;
82396;SDS011;72034;51.426;7.534;2023-11-21T08:52:28;42.83;;;23.65;;
82396;SDS011;72034;51.426;7.534;2023-11-21T08:55:10;39.58;;;23.52;;
82396;SDS011;72034;51.426;7.534;2023-11-21T08:58:13;34.17;;;21.75;;
82396;SDS011;72034;51.426;7.534;2023-11-21T09:00:58;46.72;;;25.02;;
82396;SDS011;72034;51.426;7.534;2023-11-21T09:03:24;37.58;;;22.60;;
82396;SDS011;72034;51.426;7.534;2023-11-21T09:05:59;38.38;;;23.25;;
82396;SDS011;72034;51.426;7.534;2023-11-21T09:08:25;41.45;;;23.80;;
82396;SDS011;72034;51.426;7.534;2023-11-21T09:10:54;39.28;;;21.92;;
82396;SDS011;72034;51.426;7.534;2023-11-21T09:13:31;37.03;;;22.45;;
82396;SDS011;72034;51.426;7.534;2023-11-21T09:16:02;40.35;;;24.08;;
82396;SDS011;72034;51.426;7.534;2023-11-21T09:18:46;42.90;;;23.13;;
82396;SDS011;72034;51.426;7.534;2023-11-21T09:21:25;39.08;;;22.80;;
82396;SDS011;72034;51.426;7.534;2023-11-21T09:23:55;43.75;;;23.17;;
82396;SDS011;72034;51.426;7.534;2023-11-21T09:26:50;40.83;;;22.92;;
82396;SDS011;72034;51.426;7.534;2023-11-21T09:29:18;48.67;;;22.65;;
82396;SDS011;72034;51.426;7.534;2023-11-21T09:32:03;37.22;;;22.95;;
82396;SDS011;72034;51.426;7.534;2023-11-21T09:37:44;42.05;;;23.13;;
82396;SDS011;72034;51.426;7.534;2023-11-21T09:40:18;44.28;;;23.70;;
82396;SDS011;72034;51.426;7.534;2023-11-21T09:42:56;38.15;;;23.95;;
82396;SDS011;72034;51.426;7.534;2023-11-21T09:48:53;44.17;;;23.42;;
82396;SDS011;72034;51.426;7.534;2023-11-21T09:51:37;42.78;;;23.05;;
82396;SDS011;72034;51.426;7.534;2023-11-21T09:54:10;45.97;;;25.27;;
82396;SDS011;72034;51.426;7.534;2023-11-21T09:56:54;41.67;;;24.50;;
82396;SDS011;72034;51.426;7.534;2023-11-21T10:00:06;49.55;;;25.05;;
82396;SDS011;72034;51.426;7.534;2023-11-21T10:03:08;46.05;;;24.00;;
82396;SDS011;72034;51.426;7.534;2023-11-21T10:05:49;43.67;;;24.10;;
82396;SDS011;72034;51.426;7.534;2023-11-21T10:08:41;48.05;;;26.15;;
82396;SDS011;72034;51.426;7.534;2023-11-21T10:11:24;51.15;;;25.38;;
82396;SDS011;72034;51.426;7.534;2023-11-21T10:20:08;56.20;;;28.65;;
82396;SDS011;72034;51.426;7.534;2023-11-21T10:23:04;53.88;;;26.63;;
82396;SDS011;72034;51.426;7.534;2023-11-21T10:29:03;54.00;;;26.67;;
82396;SDS011;72034;51.426;7.534;2023-11-21T10:34:57;49.05;;;26.60;;
82396;SDS011;72034;51.426;7.534;2023-11-21T10:37:36;46.08;;;24.33;;
82396;SDS011;72034;51.426;7.534;2023-11-21T10:40:13;48.40;;;26.15;;
82396;SDS011;72034;51.426;7.534;2023-11-21T10:43:08;55.22;;;27.55;;
82396;SDS011;72034;51.426;7.534;2023-11-21T10:45:40;48.28;;;25.58;;
82396;SDS011;72034;51.426;7.534;2023-11-21T10:48:09;58.88;;;25.67;;
82396;SDS011;72034;51.426;7.534;2023-11-21T10:50:46;48.72;;;25.42;;
82396;SDS011;72034;51.426;7.534;2023-11-21T10:53:18;47.45;;;25.90;;
82396;SDS011;72034;51.426;7.534;2023-11-21T10:56:22;46.58;;;22.80;;
82396;SDS011;72034;51.426;7.534;2023-11-21T10:58:55;44.20;;;22.35;;
82396;SDS011;72034;51.426;7.534;2023-11-21T11:01:41;53.63;;;23.23;;
82396;SDS011;72034;51.426;7.534;2023-11-21T11:07:09;61.22;;;26.05;;
82396;SDS011;72034;51.426;7.534;2023-11-21T11:13:06;56.83;;;23.60;;
82396;SDS011;72034;51.426;7.534;2023-11-21T11:15:51;47.05;;;22.33;;
82396;SDS011;72034;51.426;7.534;2023-11-21T11:18:20;51.30;;;24.08;;
82396;SDS011;72034;51.426;7.534;2023-11-21T11:39:02;64.03;;;28.17;;
82396;SDS011;72034;51.426;7.534;2023-11-21T11:41:53;66.30;;;29.40;;
82396;SDS011;72034;51.426;7.534;2023-11-21T11:44:51;62.20;;;30.38;;
82396;SDS011;72034;51.426;7.534;2023-11-21T11:47:37;66.25;;;30.98;;
82396;SDS011;72034;51.426;7.534;2023-11-21T11:50:12;64.78;;;33.42;;
82396;SDS011;72034;51.426;7.534;2023-11-21T11:53:14;66.50;;;34.25;;
82396;SDS011;72034;51.426;7.534;2023-11-21T11:55:47;83.85;;;38.60;;
82396;SDS011;72034;51.426;7.534;2023-11-21T11:58:51;86.80;;;39.53;;
82396;SDS011;72034;51.426;7.534;2023-11-21T12:01:27;76.22;;;37.55;;
82396;SDS011;72034;51.426;7.534;2023-11-21T12:06:50;90.10;;;42.47;;
82396;SDS011;72034;51.426;7.534;2023-11-21T12:09:27;90.13;;;42.40;;
82396;SDS011;72034;51.426;7.534;2023-11-21T12:12:14;84.10;;;39.88;;
82396;SDS011;72034;51.426;7.534;2023-11-21T12:14:51;88.25;;;40.95;;
82396;SDS011;72034;51.426;7.534;2023-11-21T12:17:20;86.95;;;38.63;;
82396;SDS011;72034;51.426;7.534;2023-11-21T12:19:48;83.95;;;38.53;;
82396;SDS011;72034;51.426;7.534;2023-11-21T12:22:30;90.03;;;39.78;;
82396;SDS011;72034;51.426;7.534;2023-11-21T12:24:59;81.00;;;39.03;;
82396;SDS011;72034;51.426;7.534;2023-11-21T12:27:54;72.63;;;35.25;;
82396;SDS011;72034;51.426;7.534;2023-11-21T12:30:29;79.72;;;38.22;;
82396;SDS011;72034;51.426;7.534;2023-11-21T12:33:06;72.20;;;36.15;;
82396;SDS011;72034;51.426;7.534;2023-11-21T12:35:34;53.88;;;31.33;;
82396;SDS011;72034;51.426;7.534;2023-11-21T12:38:12;55.83;;;31.52;;
82396;SDS011;72034;51.426;7.534;2023-11-21T12:40:57;56.28;;;30.80;;
82396;SDS011;72034;51.426;7.534;2023-11-21T12:43:35;57.63;;;32.72;;
82396;SDS011;72034;51.426;7.534;2023-11-21T12:46:22;57.53;;;30.52;;
82396;SDS011;72034;51.426;7.534;2023-11-21T12:49:09;53.10;;;29.73;;
82396;SDS011;72034;51.426;7.534;2023-11-21T12:51:44;41.08;;;25.23;;
82396;SDS011;72034;51.426;7.534;2023-11-21T12:57:09;33.97;;;21.88;;
82396;SDS011;72034;51.426;7.534;2023-11-21T12:59:41;30.80;;;20.23;;
82396;SDS011;72034;51.426;7.534;2023-11-21T13:02:26;34.33;;;20.98;;
82396;SDS011;72034;51.426;7.534;2023-11-21T13:05:37;35.85;;;21.20;;
82396;SDS011;72034;51.426;7.534;2023-11-21T13:08:11;35.95;;;21.48;;
82396;SDS011;72034;51.426;7.534;2023-11-21T13:13:50;45.92;;;25.42;;
82396;SDS011;72034;51.426;7.534;2023-11-21T13:16:32;59.25;;;30.15;;
82396;SDS011;72034;51.426;7.534;2023-11-21T13:19:21;54.70;;;30.65;;
82396;SDS011;72034;51.426;7.534;2023-11-21T13:21:57;56.55;;;31.02;;
82396;SDS011;72034;51.426;7.534;2023-11-21T13:24:37;55.92;;;32.42;;
82396;SDS011;72034;51.426;7.534;2023-11-21T13:27:12;70.97;;;36.47;;
82396;SDS011;72034;51.426;7.534;2023-11-21T13:29:52;65.53;;;33.47;;
82396;SDS011;72034;51.426;7.534;2023-11-21T13:32:49;68.68;;;33.30;;
82396;SDS011;72034;51.426;7.534;2023-11-21T13:35:38;60.00;;;32.35;;
82396;SDS011;72034;51.426;7.534;2023-11-21T13:38:16;57.78;;;32.65;;
82396;SDS011;72034;51.426;7.534;2023-11-21T13:41:03;53.63;;;31.75;;
82396;SDS011;72034;51.426;7.534;2023-11-21T13:43:43;52.58;;;30.30;;
82396;SDS011;72034;51.426;7.534;2023-11-21T13:46:27;55.97;;;31.98;;
82396;SDS011;72034;51.426;7.534;2023-11-21T13:49:02;48.53;;;27.08;;
82396;SDS011;72034;51.426;7.534;2023-11-21T13:54:55;39.03;;;23.83;;
82396;SDS011;72034;51.426;7.534;2023-11-21T13:57:26;41.38;;;25.48;;
82396;SDS011;72034;51.426;7.534;2023-11-21T14:00:05;42.92;;;27.85;;
82396;SDS011;72034;51.426;7.534;2023-11-21T14:03:02;40.47;;;26.95;;
82396;SDS011;72034;51.426;7.534;2023-11-21T14:05:40;40.75;;;26.15;;
82396;SDS011;72034;51.426;7.534;2023-11-21T14:08:14;43.00;;;24.33;;
82396;SDS011;72034;51.426;7.534;2023-11-21T14:11:05;39.63;;;24.83;;
82396;SDS011;72034;51.426;7.534;2023-11-21T14:13:36;46.13;;;27.98;;
82396;SDS011;72034;51.426;7.534;2023-11-21T14:16:11;41.08;;;25.25;;
82396;SDS011;72034;51.426;7.534;2023-11-21T14:21:53;36.75;;;23.88;;
82396;SDS011;72034;51.426;7.534;2023-11-21T14:24:25;33.90;;;21.83;;
82396;SDS011;72034;51.426;7.534;2023-11-21T14:27:01;33.80;;;22.55;;
82396;SDS011;72034;51.426;7.534;2023-11-21T14:29:46;34.67;;;19.92;;
82396;SDS011;72034;51.426;7.534;2023-11-21T14:32:24;32.15;;;19.90;;
82396;SDS011;72034;51.426;7.534;2023-11-21T14:37:58;27.02;;;17.88;;
82396;SDS011;72034;51.426;7.534;2023-11-21T14:40:29;26.42;;;14.75;;
82396;SDS011;72034;51.426;7.534;2023-11-21T14:45:51;20.30;;;13.10;;
82396;SDS011;72034;51.426;7.534;2023-11-21T14:48:35;19.02;;;11.40;;
82396;SDS011;72034;51.426;7.534;2023-11-21T14:51:41;16.13;;;10.45;;
82396;SDS011;72034;51.426;7.534;2023-11-21T14:54:32;15.15;;;9.80;;
82396;SDS011;72034;51.426;7.534;2023-11-21T14:57:14;15.23;;;10.40;;
82396;SDS011;72034;51.426;7.534;2023-11-21T14:59:51;14.13;;;10.15;;
82396;SDS011;72034;51.426;7.534;2023-11-21T15:06:08;16.35;;;10.55;;
82396;SDS011;72034;51.426;7.534;2023-11-21T15:14:59;13.88;;;10.90;;
82396;SDS011;72034;51.426;7.534;2023-11-21T15:18:05;12.55;;;10.50;;
82396;SDS011;72034;51.426;7.534;2023-11-21T15:21:23;13.80;;;11.07;;
82396;SDS011;72034;51.426;7.534;2023-11-21T15:24:30;13.27;;;11.55;;
82396;SDS011;72034;51.426;7.534;2023-11-21T15:30:18;16.30;;;12.65;;
82396;SDS011;72034;51.426;7.534;2023-11-21T15:33:00;17.08;;;14.55;;
82396;SDS011;72034;51.426;7.534;2023-11-21T15:40:55;28.75;;;20.73;;
82396;SDS011;72034;51.426;7.534;2023-11-21T15:44:02;27.60;;;20.80;;
82396;SDS011;72034;51.426;7.534;2023-11-21T15:46:38;25.65;;;19.92;;
82396;SDS011;72034;51.426;7.534;2023-11-21T15:52:02;25.95;;;18.98;;
82396;SDS011;72034;51.426;7.534;2023-11-21T15:54:56;30.10;;;22.65;;
82396;SDS011;72034;51.426;7.534;2023-11-21T15:57:27;26.58;;;21.38;;
82396;SDS011;72034;51.426;7.534;2023-11-21T16:00:10;28.75;;;21.90;;
82396;SDS011;72034;51.426;7.534;2023-11-21T16:02:53;32.30;;;23.23;;
82396;SDS011;72034;51.426;7.534;2023-11-21T16:05:25;30.40;;;22.75;;
82396;SDS011;72034;51.426;7.534;2023-11-21T16:08:12;26.10;;;21.60;;
82396;SDS011;72034;51.426;7.534;2023-11-21T16:10:42;27.77;;;21.38;;
82396;SDS011;72034;51.426;7.534;2023-11-21T16:13:08;28.70;;;22.17;;
82396;SDS011;72034;51.426;7.534;2023-11-21T16:24:29;21.52;;;18.70;;
82396;SDS011;72034;51.426;7.534;2023-11-21T16:27:04;23.38;;;20.35;;
82396;SDS011;72034;51.426;7.534;2023-11-21T16:30:09;22.77;;;19.00;;
82396;SDS011;72034;51.426;7.534;2023-11-21T16:32:38;24.25;;;19.45;;
82396;SDS011;72034;51.426;7.534;2023-11-21T16:38:16;23.70;;;18.77;;
82396;SDS011;72034;51.426;7.534;2023-11-21T16:41:27;17.73;;;15.52;;
82396;SDS011;72034;51.426;7.534;2023-11-21T16:44:16;18.13;;;15.48;;
82396;SDS011;72034;51.426;7.534;2023-11-21T16:46:51;19.20;;;14.98;;
82396;SDS011;72034;51.426;7.534;2023-11-21T16:49:33;21.08;;;15.00;;
82396;SDS011;72034;51.426;7.534;2023-11-21T16:52:01;17.58;;;15.05;;
82396;SDS011;72034;51.426;7.534;2023-11-21T16:54:38;21.02;;;16.50;;
82396;SDS011;72034;51.426;7.534;2023-11-21T16:57:18;20.13;;;16.33;;
82396;SDS011;72034;51.426;7.534;2023-11-21T16:59:46;20.58;;;15.05;;
82396;SDS011;72034;51.426;7.534;2023-11-21T17:02:31;20.23;;;16.60;;
82396;SDS011;72034;51.426;7.534;2023-11-21T17:05:09;22.38;;;16.75;;
82396;SDS011;72034;51.426;7.534;2023-11-21T17:07:36;17.90;;;14.48;;
82396;SDS011;72034;51.426;7.534;2023-11-21T17:10:04;19.85;;;14.48;;
82396;SDS011;72034;51.426;7.534;2023-11-21T17:12:37;17.75;;;15.25;;
82396;SDS011;72034;51.426;7.534;2023-11-21T17:15:12;17.00;;;14.23;;
82396;SDS011;72034;51.426;7.534;2023-11-21T17:17:37;18.25;;;15.07;;
82396;SDS011;72034;51.426;7.534;2023-11-21T17:20:13;21.65;;;15.95;;
82396;SDS011;72034;51.426;7.534;2023-11-21T17:22:42;23.42;;;17.33;;
82396;SDS011;72034;51.426;7.534;2023-11-21T17:25:13;27.85;;;19.40;;
82396;SDS011;72034;51.426;7.534;2023-11-21T17:27:38;22.10;;;16.88;;
82396;SDS011;72034;51.426;7.534;2023-11-21T17:30:14;19.70;;;16.42;;
82396;SDS011;72034;51.426;7.534;2023-11-21T17:32:42;20.75;;;18.20;;
82396;SDS011;72034;51.426;7.534;2023-11-21T17:35:09;21.17;;;17.65;;
82396;SDS011;72034;51.426;7.534;2023-11-21T17:37:42;19.25;;;16.05;;
82396;SDS011;72034;51.426;7.534;2023-11-21T17:40:13;22.10;;;17.90;;
82396;SDS011;72034;51.426;7.534;2023-11-21T17:42:41;23.30;;;18.92;;
82396;SDS011;72034;51.426;7.534;2023-11-21T17:45:12;21.85;;;17.75;;
82396;SDS011;72034;51.426;7.534;2023-11-21T17:47:46;20.98;;;17.02;;
82396;SDS011;72034;51.426;7.534;2023-11-21T17:50:12;20.02;;;16.13;;
82396;SDS011;72034;51.426;7.534;2023-11-21T17:52:40;22.13;;;18.02;;
82396;SDS011;72034;51.426;7.534;2023-11-21T17:55:14;21.10;;;17.95;;
82396;SDS011;72034;51.426;7.534;2023-11-21T17:57:42;21.35;;;17.85;;
82396;SDS011;72034;51.426;7.534;2023-11-21T18:00:14;16.55;;;13.07;;
82396;SDS011;72034;51.426;7.534;2023-11-21T18:02:47;18.60;;;15.70;;
82396;SDS011;72034;51.426;7.534;2023-11-21T18:05:16;16.70;;;14.93;;
82396;SDS011;72034;51.426;7.534;2023-11-21T18:07:48;18.90;;;16.85;;
82396;SDS011;72034;51.426;7.534;2023-11-21T18:10:34;17.38;;;15.13;;
82396;SDS011;72034;51.426;7.534;2023-11-21T18:13:00;18.45;;;16.08;;
82396;SDS011;72034;51.426;7.534;2023-11-21T18:15:25;20.35;;;15.80;;
82396;SDS011;72034;51.426;7.534;2023-11-21T18:17:56;19.83;;;17.83;;
82396;SDS011;72034;51.426;7.534;2023-11-21T18:20:22;16.30;;;14.23;;
82396;SDS011;72034;51.426;7.534;2023-11-21T18:23:07;17.48;;;14.75;;
82396;SDS011;72034;51.426;7.534;2023-11-21T18:25:38;15.07;;;13.48;;
82396;SDS011;72034;51.426;7.534;2023-11-21T18:28:04;14.52;;;12.05;;
82396;SDS011;72034;51.426;7.534;2023-11-21T18:30:35;14.40;;;12.50;;
82396;SDS011;72034;51.426;7.534;2023-11-21T18:33:03;15.98;;;14.15;;
82396;SDS011;72034;51.426;7.534;2023-11-21T18:35:40;16.63;;;14.93;;
82396;SDS011;72034;51.426;7.534;2023-11-21T18:38:24;16.83;;;13.40;;
82396;SDS011;72034;51.426;7.534;2023-11-21T18:41:05;15.70;;;12.38;;
82396;SDS011;72034;51.426;7.534;2023-11-21T18:43:36;20.40;;;16.05;;
82396;SDS011;72034;51.426;7.534;2023-11-21T18:46:07;16.13;;;13.95;;
82396;SDS011;72034;51.426;7.534;2023-11-21T18:48:38;17.63;;;15.43;;
82396;SDS011;72034;51.426;7.534;2023-11-21T18:51:07;18.17;;;16.02;;
82396;SDS011;72034;51.426;7.534;2023-11-21T18:53:35;17.00;;;15.15;;
82396;SDS011;72034;51.426;7.534;2023-11-21T18:56:03;19.85;;;15.68;;
82396;SDS011;72034;51.426;7.534;2023-11-21T18:58:36;16.67;;;13.95;;
82396;SDS011;72034;51.426;7.534;2023-11-21T19:01:11;15.43;;;13.60;;
82396;SDS011;72034;51.426;7.534;2023-11-21T19:03:42;20.90;;;14.15;;
82396;SDS011;72034;51.426;7.534;2023-11-21T19:06:26;14.68;;;12.70;;
82396;SDS011;72034;51.426;7.534;2023-11-21T19:08:52;18.17;;;13.32;;
82396;SDS011;72034;51.426;7.534;2023-11-21T19:11:25;17.58;;;14.55;;
82396;SDS011;72034;51.426;7.534;2023-11-21T19:13:53;17.98;;;14.32;;
82396;SDS011;72034;51.426;7.534;2023-11-21T19:16:22;17.85;;;15.20;;
82396;SDS011;72034;51.426;7.534;2023-11-21T19:18:50;18.92;;;15.60;;
82396;SDS011;72034;51.426;7.534;2023-11-21T19:21:21;26.17;;;18.73;;
82396;SDS011;72034;51.426;7.534;2023-11-21T19:23:47;18.27;;;14.57;;
82396;SDS011;72034;51.426;7.534;2023-11-21T19:26:18;19.58;;;15.63;;
82396;SDS011;72034;51.426;7.534;2023-11-21T19:28:44;25.05;;;18.70;;
82396;SDS011;72034;51.426;7.534;2023-11-21T19:31:16;16.83;;;14.30;;
82396;SDS011;72034;51.426;7.534;2023-11-21T19:33:41;19.50;;;15.35;;
82396;SDS011;72034;51.426;7.534;2023-11-21T19:36:18;18.95;;;15.52;;
82396;SDS011;72034;51.426;7.534;2023-11-21T19:38:47;17.73;;;14.55;;
82396;SDS011;72034;51.426;7.534;2023-11-21T19:41:19;18.98;;;15.43;;
82396;SDS011;72034;51.426;7.534;2023-11-21T19:43:52;18.80;;;16.42;;
82396;SDS011;72034;51.426;7.534;2023-11-21T19:46:18;18.15;;;15.35;;
82396;SDS011;72034;51.426;7.534;2023-11-21T19:48:43;17.48;;;15.20;;
82396;SDS011;72034;51.426;7.534;2023-11-21T19:51:17;15.85;;;13.63;;
82396;SDS011;72034;51.426;7.534;2023-11-21T19:53:50;16.42;;;14.52;;
82396;SDS011;72034;51.426;7.534;2023-11-21T19:56:16;19.58;;;15.38;;
82396;SDS011;72034;51.426;7.534;2023-11-21T19:58:50;17.38;;;13.95;;
82396;SDS011;72034;51.426;7.534;2023-11-21T20:01:18;18.80;;;15.52;;
82396;SDS011;72034;51.426;7.534;2023-11-21T20:03:47;20.85;;;15.93;;
82396;SDS011;72034;51.426;7.534;2023-11-21T20:06:23;18.52;;;15.32;;
82396;SDS011;72034;51.426;7.534;2023-11-21T20:08:49;17.67;;;14.80;;
82396;SDS011;72034;51.426;7.534;2023-11-21T20:11:29;16.63;;;14.82;;
82396;SDS011;72034;51.426;7.534;2023-11-21T20:13:56;18.52;;;15.63;;
82396;SDS011;72034;51.426;7.534;2023-11-21T20:16:27;18.23;;;15.75;;
82396;SDS011;72034;51.426;7.534;2023-11-21T20:18:53;17.02;;;14.63;;
82396;SDS011;72034;51.426;7.534;2023-11-21T20:21:29;20.75;;;15.88;;
82396;SDS011;72034;51.426;7.534;2023-11-21T20:24:06;17.83;;;15.07;;
82396;SDS011;72034;51.426;7.534;2023-11-21T20:26:41;21.05;;;16.38;;
82396;SDS011;72034;51.426;7.534;2023-11-21T20:29:09;20.05;;;16.35;;
82396;SDS011;72034;51.426;7.534;2023-11-21T20:31:35;17.35;;;15.52;;
82396;SDS011;72034;51.426;7.534;2023-11-21T20:34:11;17.52;;;15.60;;
82396;SDS011;72034;51.426;7.534;2023-11-21T20:36:39;20.42;;;15.40;;
82396;SDS011;72034;51.426;7.534;2023-11-21T20:39:08;20.65;;;16.23;;
82396;SDS011;72034;51.426;7.534;2023-11-21T20:41:36;18.17;;;15.35;;
82396;SDS011;72034;51.426;7.534;2023-11-21T20:44:01;18.88;;;15.23;;
82396;SDS011;72034;51.426;7.534;2023-11-21T20:46:44;19.52;;;16.10;;
82396;SDS011;72034;51.426;7.534;2023-11-21T20:49:19;16.13;;;14.05;;
82396;SDS011;72034;51.426;7.534;2023-11-21T20:51:51;19.92;;;14.65;;
82396;SDS011;72034;51.426;7.534;2023-11-21T20:54:18;16.40;;;13.82;;
82396;SDS011;72034;51.426;7.534;2023-11-21T20:56:50;19.63;;;14.73;;
82396;SDS011;72034;51.426;7.534;2023-11-21T20:59:16;15.77;;;13.07;;
82396;SDS011;72034;51.426;7.534;2023-11-21T21:01:42;16.23;;;13.98;;
82396;SDS011;72034;51.426;7.534;2023-11-21T21:04:20;14.80;;;13.27;;
82396;SDS011;72034;51.426;7.534;2023-11-21T21:06:48;17.40;;;14.40;;
82396;SDS011;72034;51.426;7.534;2023-11-21T21:09:20;12.82;;;11.30;;
82396;SDS011;72034;51.426;7.534;2023-11-21T21:11:48;13.73;;;11.02;;
82396;SDS011;72034;51.426;7.534;2023-11-21T21:14:16;13.85;;;12.00;;
82396;SDS011;72034;51.426;7.534;2023-11-21T21:16:52;15.80;;;12.73;;
82396;SDS011;72034;51.426;7.534;2023-11-21T21:19:22;13.90;;;12.43;;
82396;SDS011;72034;51.426;7.534;2023-11-21T21:21:55;15.25;;;10.80;;
82396;SDS011;72034;51.426;7.534;2023-11-21T21:24:23;15.15;;;11.68;;
82396;SDS011;72034;51.426;7.534;2023-11-21T21:29:19;16.13;;;11.88;;
82396;SDS011;72034;51.426;7.534;2023-11-21T21:31:56;12.18;;;10.75;;
82396;SDS011;72034;51.426;7.534;2023-11-21T21:34:25;12.15;;;10.95;;
82396;SDS011;72034;51.426;7.534;2023-11-21T21:36:55;11.93;;;10.73;;
82396;SDS011;72034;51.426;7.534;2023-11-21T21:39:28;12.52;;;10.57;;
82396;SDS011;72034;51.426;7.534;2023-11-21T21:42:01;12.82;;;11.05;;
82396;SDS011;72034;51.426;7.534;2023-11-21T21:44:29;15.05;;;11.13;;
82396;SDS011;72034;51.426;7.534;2023-11-21T21:47:03;11.95;;;10.38;;
82396;SDS011;72034;51.426;7.534;2023-11-21T21:49:40;13.25;;;10.95;;
82396;SDS011;72034;51.426;7.534;2023-11-21T21:52:10;15.15;;;12.45;;
82396;SDS011;72034;51.426;7.534;2023-11-21T21:54:41;14.02;;;10.93;;
82396;SDS011;72034;51.426;7.534;2023-11-21T21:57:15;13.88;;;10.73;;
82396;SDS011;72034;51.426;7.534;2023-11-21T21:59:40;14.93;;;12.32;;
82396;SDS011;72034;51.426;7.534;2023-11-21T22:02:08;16.20;;;12.05;;
82396;SDS011;72034;51.426;7.534;2023-11-21T22:04:36;14.50;;;11.75;;
82396;SDS011;72034;51.426;7.534;2023-11-21T22:07:08;17.02;;;13.10;;
82396;SDS011;72034;51.426;7.534;2023-11-21T22:09:46;14.30;;;12.75;;
82396;SDS011;72034;51.426;7.534;2023-11-21T22:12:12;15.63;;;13.43;;
82396;SDS011;72034;51.426;7.534;2023-11-21T22:14:40;17.30;;;13.38;;
82396;SDS011;72034;51.426;7.534;2023-11-21T22:17:16;15.15;;;12.70;;
82396;SDS011;72034;51.426;7.534;2023-11-21T22:20:01;15.55;;;13.70;;
82396;SDS011;72034;51.426;7.534;2023-11-21T22:23:31;17.85;;;13.88;;
82396;SDS011;72034;51.426;7.534;2023-11-21T22:26:01;16.05;;;13.52;;
82396;SDS011;72034;51.426;7.534;2023-11-21T22:28:29;16.27;;;13.18;;